Time;durP1;ratioP1;P1;durP2;ratioP2;P2;SDS_P1;SDS_P2;PMS_P1;PMS_P2;Temp;Humidity;BMP_temperature;BMP_pressure;BME280_temperature;BME280_humidity;BME280_pressure;Samples;Min_cycle;Max_cycle;Signal;HPM_P1;HPM_P2
2020/12/24 00:01:39;;;;;;;0.40;0.20;;;10.90;99.90;;;;;;1888097;75;21142;-73
2020/12/24 00:04:05;;;;;;;0.10;0.10;;;10.90;99.90;;;;;;1882843;75;21078;-74
2020/12/24 00:06:32;;;;;;;2.30;0.28;;;10.90;99.90;;;;;;1880786;76;21146;-74
2020/12/24 00:08:58;;;;;;;0.10;0.10;;;11.00;99.90;;;;;;1888712;75;21142;-74
2020/12/24 00:11:24;;;;;;;0.37;0.20;;;11.10;99.90;;;;;;1884612;75;21153;-73
2020/12/24 00:13:50;;;;;;;0.55;0.33;;;11.10;99.90;;;;;;1886956;74;21504;-73
2020/12/24 00:16:16;;;;;;;0.20;0.20;;;11.00;99.90;;;;;;1887363;75;21453;-73
2020/12/24 00:18:42;;;;;;;0.10;0.10;;;11.10;99.90;;;;;;1882777;75;21574;-73
2020/12/24 00:21:09;;;;;;;0.72;0.30;;;11.20;99.90;;;;;;1891646;76;21508;-72
2020/12/24 00:23:35;;;;;;;0.15;0.15;;;11.10;99.90;;;;;;1882805;75;21150;-73
2020/12/24 00:26:01;;;;;;;0.10;0.10;;;11.10;99.90;;;;;;1882845;75;21202;-73
2020/12/24 00:28:27;;;;;;;0.33;0.20;;;11.20;99.90;;;;;;1885789;75;21049;-73
2020/12/24 00:30:53;;;;;;;1.45;0.10;;;11.20;99.90;;;;;;1888728;75;21185;-72
2020/12/24 00:33:19;;;;;;;0.10;0.10;;;11.20;99.90;;;;;;1882842;76;21084;-73
2020/12/24 00:35:45;;;;;;;0.78;0.20;;;11.10;99.90;;;;;;1882267;76;21081;-73
2020/12/24 00:38:12;;;;;;;0.37;0.10;;;11.20;99.90;;;;;;1885821;76;21182;-72
2020/12/24 00:40:38;;;;;;;0.33;0.20;;;11.20;99.90;;;;;;1886199;76;21084;-72
2020/12/24 00:43:04;;;;;;;0.15;0.15;;;11.10;99.90;;;;;;1885777;75;21092;-73
2020/12/24 00:45:30;;;;;;;0.10;0.10;;;11.00;99.90;;;;;;1880029;76;21081;-72
2020/12/24 00:47:56;;;;;;;0.23;0.13;;;11.00;99.90;;;;;;1891624;76;21440;-73
2020/12/24 00:50:22;;;;;;;0.10;0.10;;;11.10;99.90;;;;;;1882784;76;21527;-73
2020/12/24 00:52:48;;;;;;;0.33;0.30;;;11.10;99.90;;;;;;1885788;75;21732;-73
2020/12/24 00:55:14;;;;;;;0.80;0.30;;;11.10;99.90;;;;;;1885807;76;21497;-73
2020/12/24 00:57:41;;;;;;;0.17;0.15;;;11.00;99.90;;;;;;1879851;75;21499;-73
2020/12/24 01:00:07;;;;;;;0.15;0.15;;;10.90;99.90;;;;;;1882792;76;21142;-73
2020/12/24 01:02:33;;;;;;;3.40;0.20;;;11.00;99.90;;;;;;1879842;76;21081;-73
2020/12/24 01:04:59;;;;;;;0.28;0.20;;;11.00;99.90;;;;;;1879882;75;21085;-73
2020/12/24 01:07:25;;;;;;;0.70;0.30;;;11.00;99.90;;;;;;1888728;74;21084;-73
2020/12/24 01:09:51;;;;;;;0.70;0.30;;;10.90;99.90;;;;;;1889693;74;21080;-73
2020/12/24 01:12:17;;;;;;;2.22;0.30;;;10.70;99.90;;;;;;1884625;76;21076;-73
2020/12/24 01:14:43;;;;;;;0.10;0.10;;;10.70;99.90;;;;;;1889834;76;21084;-73
2020/12/24 01:17:10;;;;;;;0.50;0.15;;;10.60;99.90;;;;;;1884543;76;21053;-73
2020/12/24 01:19:36;;;;;;;1.20;0.30;;;10.50;99.90;;;;;;1882933;76;21134;-73
2020/12/24 01:22:02;;;;;;;0.23;0.23;;;10.50;99.90;;;;;;1888531;75;21099;-73
2020/12/24 01:24:28;;;;;;;1.85;0.40;;;10.50;99.90;;;;;;1880016;75;21163;-73
2020/12/24 01:26:54;;;;;;;1.07;0.23;;;10.30;99.90;;;;;;1882704;75;21053;-73
2020/12/24 01:29:20;;;;;;;2.08;0.20;;;10.20;99.90;;;;;;1885874;75;21515;-73
2020/12/24 01:31:46;;;;;;;3.35;0.20;;;10.00;99.90;;;;;;1879967;75;21468;-73
2020/12/24 01:34:12;;;;;;;0.53;0.23;;;9.80;99.90;;;;;;1885631;76;21536;-73
2020/12/24 01:36:39;;;;;;;2.00;0.20;;;9.70;99.90;;;;;;1882895;76;21465;-73
2020/12/24 01:39:05;;;;;;;2.58;0.50;;;9.60;99.90;;;;;;1882716;76;21144;-73
2020/12/24 01:41:31;;;;;;;0.75;0.30;;;9.60;99.90;;;;;;1894615;74;21130;-73
2020/12/24 01:43:57;;;;;;;0.53;0.20;;;9.50;99.90;;;;;;1882690;76;21284;-73
2020/12/24 01:46:23;;;;;;;0.25;0.25;;;9.30;99.90;;;;;;1885836;74;21154;-73
2020/12/24 01:48:49;;;;;;;2.90;0.30;;;9.30;99.90;;;;;;1882710;75;21080;-73
2020/12/24 01:51:15;;;;;;;7.00;0.60;;;9.40;99.90;;;;;;1885853;76;21052;-73
2020/12/24 01:53:41;;;;;;;0.20;0.20;;;9.50;99.90;;;;;;1879877;74;21136;-73
2020/12/24 01:56:08;;;;;;;0.42;0.20;;;9.50;99.90;;;;;;1882941;76;21175;-73
2020/12/24 01:58:34;;;;;;;4.05;0.33;;;9.40;99.90;;;;;;1882892;75;21091;-73
2020/12/24 02:01:00;;;;;;;0.90;0.20;;;9.50;99.90;;;;;;1885715;76;21084;-73
2020/12/24 02:03:26;;;;;;;0.10;0.10;;;9.50;99.90;;;;;;1879851;75;21093;-73
2020/12/24 02:05:52;;;;;;;0.25;0.25;;;9.50;99.90;;;;;;1883504;76;21057;-73
2020/12/24 02:08:19;;;;;;;0.15;0.15;;;9.60;99.90;;;;;;1884912;76;21057;-73
2020/12/24 02:10:45;;;;;;;3.35;1.02;;;9.70;99.90;;;;;;1885677;75;21057;-73
2020/12/24 02:13:11;;;;;;;0.75;0.50;;;9.70;99.90;;;;;;1885736;76;21090;-73
2020/12/24 02:15:37;;;;;;;0.95;0.28;;;9.60;99.90;;;;;;1888594;75;21092;-73
2020/12/24 02:18:04;;;;;;;0.30;0.30;;;9.60;99.90;;;;;;1879923;75;21508;-73
2020/12/24 02:20:30;;;;;;;0.82;0.20;;;9.70;99.90;;;;;;1879932;75;21529;-73
2020/12/24 02:22:56;;;;;;;0.00;0.00;;;9.90;99.90;;;;;;1883548;75;21520;-73
2020/12/24 02:25:22;;;;;;;0.47;0.20;;;9.90;99.90;;;;;;1884706;75;21467;-73
2020/12/24 02:27:48;;;;;;;1.45;0.28;;;10.00;99.90;;;;;;1888562;75;21088;-73
2020/12/24 02:30:14;;;;;;;0.75;0.30;;;9.90;99.90;;;;;;1882903;75;21146;-72
2020/12/24 02:32:40;;;;;;;0.80;0.40;;;9.90;99.90;;;;;;1887025;76;21084;-72
2020/12/24 02:35:06;;;;;;;1.00;0.10;;;9.80;99.90;;;;;;1882928;75;21084;-72
2020/12/24 02:37:32;;;;;;;1.72;0.42;;;9.80;99.90;;;;;;1881076;76;21100;-73
2020/12/24 02:40:01;;;;;;;0.10;0.10;;;9.70;99.90;;;;;;1879924;75;21158;-73
2020/12/24 02:42:26;;;;;;;0.23;0.10;;;9.80;99.90;;;;;;1882840;75;21085;-73
2020/12/24 02:44:53;;;;;;;0.45;0.30;;;9.80;99.90;;;;;;1885592;76;21100;-72
2020/12/24 02:47:19;;;;;;;0.35;0.10;;;9.70;99.90;;;;;;1879941;75;21134;-73
2020/12/24 02:49:45;;;;;;;0.20;0.20;;;9.70;99.90;;;;;;1879847;76;21088;-72
2020/12/24 02:52:11;;;;;;;0.10;0.10;;;9.60;99.90;;;;;;1887499;76;21045;-72
2020/12/24 02:54:37;;;;;;;0.62;0.28;;;9.50;99.90;;;;;;1888646;76;21083;-73
2020/12/24 02:57:03;;;;;;;0.20;0.20;;;9.50;99.90;;;;;;1883677;76;21079;-72
2020/12/24 02:59:29;;;;;;;0.10;0.10;;;9.30;99.90;;;;;;1882786;76;21092;-72
2020/12/24 03:01:55;;;;;;;0.40;0.20;;;9.40;99.90;;;;;;1882762;75;21073;-73
2020/12/24 03:04:21;;;;;;;0.62;0.23;;;9.40;99.90;;;;;;1891533;75;21143;-73
2020/12/24 03:06:48;;;;;;;0.10;0.10;;;9.40;99.90;;;;;;1885688;75;21171;-73
2020/12/24 03:09:14;;;;;;;0.30;0.30;;;9.40;99.90;;;;;;1879774;75;21092;-73
2020/12/24 03:11:40;;;;;;;0.10;0.10;;;9.40;99.90;;;;;;1882721;75;21088;-72
2020/12/24 03:14:07;;;;;;;0.60;0.23;;;9.40;99.90;;;;;;1885683;76;21084;-72
2020/12/24 03:16:33;;;;;;;0.95;0.20;;;9.30;99.90;;;;;;1877939;76;21134;-72
2020/12/24 03:18:59;;;;;;;1.17;0.20;;;9.30;99.90;;;;;;1888634;76;21091;-72
2020/12/24 03:21:25;;;;;;;0.10;0.10;;;9.20;99.90;;;;;;1882772;76;21065;-72
2020/12/24 03:23:51;;;;;;;0.23;0.10;;;9.20;99.90;;;;;;1879878;75;21049;-72
2020/12/24 03:26:17;;;;;;;0.78;0.10;;;9.30;99.90;;;;;;1879861;75;21084;-72
2020/12/24 03:28:43;;;;;;;0.10;0.10;;;9.20;99.90;;;;;;1885787;74;21080;-72
2020/12/24 03:31:09;;;;;;;0.40;0.30;;;9.20;99.90;;;;;;1882851;76;21158;-73
2020/12/24 03:33:35;;;;;;;1.00;0.20;;;9.10;99.90;;;;;;1882851;75;21088;-73
2020/12/24 03:36:02;;;;;;;0.17;0.15;;;9.00;99.90;;;;;;1885742;74;21576;-72
2020/12/24 03:38:28;;;;;;;0.33;0.30;;;9.00;99.90;;;;;;1879924;75;21512;-73
2020/12/24 03:40:54;;;;;;;1.20;0.30;;;9.00;99.90;;;;;;1879875;75;21573;-73
2020/12/24 03:43:20;;;;;;;0.10;0.10;;;9.00;99.90;;;;;;1885726;76;21169;-73
2020/12/24 03:45:46;;;;;;;0.85;0.20;;;8.90;99.90;;;;;;1887200;76;21083;-72
2020/12/24 03:48:12;;;;;;;0.05;0.05;;;8.80;99.90;;;;;;1887247;74;21252;-72
2020/12/24 03:50:38;;;;;;;0.20;0.20;;;8.80;99.90;;;;;;1885809;75;21052;-72
2020/12/24 03:53:04;;;;;;;0.10;0.10;;;8.80;99.90;;;;;;1887539;75;21163;-72
2020/12/24 03:55:31;;;;;;;0.30;0.20;;;8.70;99.90;;;;;;1878631;76;21146;-72
2020/12/24 03:57:57;;;;;;;0.72;0.15;;;8.70;99.90;;;;;;1880765;75;21157;-73
2020/12/24 04:00:24;;;;;;;1.45;0.20;;;8.70;99.90;;;;;;1881574;76;21147;-73
2020/12/24 04:02:50;;;;;;;0.45;0.10;;;8.60;99.90;;;;;;1882885;75;21088;-72
2020/12/24 04:05:17;;;;;;;1.50;0.40;;;8.60;99.90;;;;;;1879901;75;21084;-73
2020/12/24 04:07:43;;;;;;;0.28;0.28;;;8.60;99.90;;;;;;1885757;75;21112;-72
2020/12/24 04:10:09;;;;;;;0.70;0.20;;;8.70;99.90;;;;;;1882851;76;21096;-72
2020/12/24 04:12:35;;;;;;;2.08;0.50;;;8.70;99.90;;;;;;1882855;75;21053;-72
2020/12/24 04:17:46;;;;;;;1.10;0.10;;;8.70;99.90;;;;;;1909317;73;21271;-72
2020/12/24 04:20:13;;;;;;;0.28;0.28;;;8.70;99.90;;;;;;1890259;73;21069;-72
2020/12/24 04:22:39;;;;;;;0.42;0.10;;;8.70;99.90;;;;;;1953788;71;21065;-73
2020/12/24 04:25:05;;;;;;;0.20;0.20;;;8.70;99.90;;;;;;1959492;71;21026;-73
2020/12/24 04:27:31;;;;;;;1.30;0.25;;;8.60;99.90;;;;;;1963806;71;21119;-73
2020/12/24 04:29:57;;;;;;;0.20;0.20;;;8.60;99.90;;;;;;1904898;73;21147;-73
2020/12/24 04:32:23;;;;;;;3.30;0.33;;;8.70;99.90;;;;;;1885269;74;21075;-73
2020/12/24 04:34:49;;;;;;;0.33;0.20;;;8.70;99.90;;;;;;1908342;73;21148;-73
2020/12/24 04:37:15;;;;;;;1.02;0.30;;;8.70;99.90;;;;;;1892043;73;21042;-73
2020/12/24 04:39:41;;;;;;;0.20;0.20;;;8.80;99.90;;;;;;1901197;73;21073;-73
2020/12/24 04:42:08;;;;;;;4.70;0.33;;;8.80;99.90;;;;;;1906582;73;21152;-72
2020/12/24 04:44:34;;;;;;;0.20;0.20;;;8.80;99.90;;;;;;1914396;73;21087;-72
2020/12/24 04:47:01;;;;;;;0.10;0.10;;;8.80;99.90;;;;;;1897216;73;21082;-73
2020/12/24 04:49:27;;;;;;;0.85;0.25;;;8.70;99.90;;;;;;1961545;71;21142;-72
2020/12/24 04:51:53;;;;;;;0.13;0.08;;;8.70;99.90;;;;;;1957794;72;21171;-72
2020/12/24 04:54:19;;;;;;;0.10;0.10;;;8.70;99.90;;;;;;1975570;71;21062;-72
2020/12/24 04:56:45;;;;;;;0.20;0.20;;;8.70;99.90;;;;;;1959513;71;21053;-72
2020/12/24 04:59:12;;;;;;;0.42;0.20;;;8.70;99.90;;;;;;1961821;71;21065;-72
2020/12/24 05:01:38;;;;;;;0.17;0.17;;;8.70;99.90;;;;;;1967852;72;21180;-72
2020/12/24 05:04:04;;;;;;;0.10;0.10;;;8.60;99.90;;;;;;1911012;73;21086;-72
2020/12/24 05:06:30;;;;;;;0.70;0.20;;;8.60;99.90;;;;;;1905767;73;21123;-72
2020/12/24 05:08:56;;;;;;;2.10;0.23;;;8.60;99.90;;;;;;1901537;73;21082;-72
2020/12/24 05:11:22;;;;;;;0.10;0.10;;;8.40;99.90;;;;;;1908116;73;21077;-73
2020/12/24 05:13:48;;;;;;;0.10;0.10;;;8.40;99.90;;;;;;1955046;71;21159;-72
2020/12/24 05:16:14;;;;;;;0.55;0.20;;;8.30;99.90;;;;;;1898052;73;21078;-72
2020/12/24 05:18:41;;;;;;;0.45;0.15;;;8.30;99.90;;;;;;1908919;73;21169;-72
2020/12/24 05:21:07;;;;;;;0.20;0.10;;;8.30;99.90;;;;;;1913786;73;21086;-72
2020/12/24 05:23:33;;;;;;;0.00;0.00;;;8.30;99.90;;;;;;1907051;73;21144;-72
2020/12/24 05:25:59;;;;;;;0.80;0.30;;;8.20;99.90;;;;;;1903004;73;21082;-72
2020/12/24 05:28:25;;;;;;;0.10;0.10;;;8.20;99.90;;;;;;1915253;73;21155;-72
2020/12/24 05:30:51;;;;;;;0.47;0.10;;;8.20;99.90;;;;;;1888882;74;21078;-72
2020/12/24 05:33:17;;;;;;;0.10;0.10;;;8.10;99.90;;;;;;1889086;73;21051;-72
2020/12/24 05:35:43;;;;;;;0.23;0.10;;;8.00;99.90;;;;;;1904430;73;21478;-72
2020/12/24 05:38:09;;;;;;;0.20;0.20;;;8.00;99.90;;;;;;1905441;73;21458;-72
2020/12/24 05:40:38;;;;;;;1.02;0.25;;;8.00;99.90;;;;;;1955557;72;21477;-72
2020/12/24 05:43:03;;;;;;;0.37;0.13;;;7.90;99.90;;;;;;1912203;73;21168;-72
2020/12/24 05:45:30;;;;;;;0.20;0.20;;;7.90;99.90;;;;;;1910938;73;21070;-72
2020/12/24 05:47:56;;;;;;;1.12;0.20;;;7.90;99.90;;;;;;1958312;72;21030;-72
2020/12/24 05:50:22;;;;;;;0.10;0.10;;;8.00;99.90;;;;;;1959548;72;21573;-72
2020/12/24 05:52:48;;;;;;;3.85;1.40;;;8.10;99.90;;;;;;1963302;71;21486;-72
2020/12/24 05:55:14;;;;;;;0.40;0.40;;;8.10;99.90;;;;;;1962589;71;21526;-72
2020/12/24 05:57:40;;;;;;;2.47;0.33;;;8.10;99.90;;;;;;1910820;73;21074;-72
2020/12/24 06:00:06;;;;;;;1.85;0.30;;;8.10;99.90;;;;;;1881558;73;21070;-72
2020/12/24 06:02:32;;;;;;;1.12;0.17;;;8.10;99.90;;;;;;1936916;72;21132;-72
2020/12/24 06:04:58;;;;;;;0.20;0.20;;;8.10;99.90;;;;;;1906244;73;21139;-72
2020/12/24 06:07:25;;;;;;;0.78;0.35;;;8.00;99.90;;;;;;1969892;71;21061;-72
2020/12/24 06:09:51;;;;;;;0.13;0.13;;;7.90;99.90;;;;;;1962016;72;21046;-72
2020/12/24 06:12:17;;;;;;;0.50;0.30;;;7.90;99.90;;;;;;1910995;73;21144;-72
2020/12/24 06:14:47;;;;;;;1.92;0.30;;;7.70;99.90;;;;;;1906348;73;21265;-72
2020/12/24 06:17:11;;;;;;;0.10;0.10;;;7.70;99.90;;;;;;1957555;71;21049;-72
2020/12/24 06:19:37;;;;;;;0.10;0.10;;;7.60;99.90;;;;;;1964187;72;21026;-72
2020/12/24 06:22:04;;;;;;;1.22;0.30;;;7.60;99.90;;;;;;1908843;73;21054;-72
2020/12/24 06:24:30;;;;;;;1.57;0.35;;;7.60;99.90;;;;;;1882397;73;21077;-73
2020/12/24 06:26:57;;;;;;;1.65;0.30;;;7.60;99.90;;;;;;1942620;72;21121;-73
2020/12/24 06:29:23;;;;;;;2.98;0.68;;;7.50;99.90;;;;;;1907965;71;21105;-73
2020/12/24 06:31:49;;;;;;;2.50;0.62;;;7.40;99.90;;;;;;1911637;73;21069;-73
2020/12/24 06:34:15;;;;;;;1.40;0.28;;;7.60;99.90;;;;;;1940253;72;21061;-72
2020/12/24 06:36:42;;;;;;;0.30;0.30;;;7.60;99.90;;;;;;1963038;72;21421;-72
2020/12/24 06:39:08;;;;;;;1.25;0.50;;;7.70;99.90;;;;;;1970949;72;21032;-72
2020/12/24 06:41:34;;;;;;;1.87;0.33;;;7.80;99.90;;;;;;1960633;72;21062;-73
2020/12/24 06:44:00;;;;;;;1.55;0.50;;;7.80;99.90;;;;;;1957578;72;21065;-72
2020/12/24 06:46:26;;;;;;;2.17;0.50;;;7.90;99.90;;;;;;1893423;73;21474;-72
2020/12/24 06:48:52;;;;;;;5.95;0.68;;;7.90;99.90;;;;;;1909727;74;21474;-72
2020/12/24 06:51:18;;;;;;;4.15;0.57;;;8.00;99.90;;;;;;1894152;73;21575;-74
2020/12/24 06:53:45;;;;;;;4.22;0.40;;;8.10;99.90;;;;;;1901808;73;21118;-74
2020/12/24 06:56:11;;;;;;;0.75;0.40;;;8.10;99.90;;;;;;1914972;73;21047;-72
2020/12/24 06:58:37;;;;;;;1.17;0.47;;;8.10;99.90;;;;;;1918559;73;21293;-72
2020/12/24 07:01:03;;;;;;;3.08;0.75;;;8.20;99.90;;;;;;1920222;74;21070;-73
2020/12/24 07:03:30;;;;;;;1.85;0.50;;;8.20;99.90;;;;;;1966182;72;21049;-72
2020/12/24 07:05:56;;;;;;;0.78;0.45;;;8.20;99.90;;;;;;1967239;72;21484;-73
2020/12/24 07:08:23;;;;;;;1.05;0.25;;;8.10;99.90;;;;;;1973481;72;21537;-73
2020/12/24 07:10:49;;;;;;;0.23;0.20;;;8.10;99.90;;;;;;1891584;74;21082;-73
2020/12/24 07:13:15;;;;;;;1.80;0.40;;;8.00;99.90;;;;;;1964756;72;21043;-73
2020/12/24 07:15:41;;;;;;;2.83;0.47;;;8.10;99.90;;;;;;1965634;72;21030;-73
2020/12/24 07:18:07;;;;;;;6.87;0.50;;;8.20;99.90;;;;;;1953191;72;21059;-73
2020/12/24 07:20:33;;;;;;;1.07;0.35;;;8.20;99.90;;;;;;1895328;73;21208;-73
2020/12/24 07:23:00;;;;;;;0.98;0.40;;;8.30;99.90;;;;;;1966109;72;21135;-72
2020/12/24 07:25:26;;;;;;;2.40;0.30;;;8.30;99.90;;;;;;1947986;72;21073;-73
2020/12/24 07:27:52;;;;;;;1.65;0.50;;;8.30;99.90;;;;;;1948522;72;21410;-73
2020/12/24 07:30:21;;;;;;;2.60;0.65;;;8.30;99.90;;;;;;1949167;72;21140;-72
2020/12/24 07:32:46;;;;;;;0.75;0.42;;;8.30;99.90;;;;;;1958397;72;21440;-72
2020/12/24 07:35:12;;;;;;;1.75;0.35;;;8.40;99.90;;;;;;1969203;72;21561;-72
2020/12/24 07:37:38;;;;;;;1.40;0.40;;;8.40;99.90;;;;;;1968444;71;21049;-72
2020/12/24 07:40:04;;;;;;;2.00;0.60;;;8.40;99.90;;;;;;1962507;72;21144;-72
2020/12/24 07:42:30;;;;;;;2.22;0.53;;;8.30;99.90;;;;;;1887061;73;21086;-72
2020/12/24 07:44:56;;;;;;;1.30;0.40;;;8.40;99.90;;;;;;1906538;73;21034;-73
2020/12/24 07:47:24;;;;;;;3.33;0.50;;;8.40;99.90;;;;;;1962977;72;21062;-73
2020/12/24 07:49:50;;;;;;;1.42;0.50;;;8.40;99.90;;;;;;1970848;72;21449;-73
2020/12/24 07:52:16;;;;;;;5.53;1.22;;;8.50;99.90;;;;;;1965857;72;21850;-73
2020/12/24 07:54:42;;;;;;;2.15;0.50;;;8.50;99.90;;;;;;1966008;72;21647;-73
2020/12/24 07:57:08;;;;;;;0.42;0.30;;;8.60;99.90;;;;;;1967884;72;21102;-73
2020/12/24 07:59:34;;;;;;;3.17;0.60;;;8.60;99.90;;;;;;1957884;72;21060;-73
2020/12/24 08:02:00;;;;;;;2.33;0.40;;;8.70;99.90;;;;;;1950043;72;21043;-74
2020/12/24 08:04:26;;;;;;;5.60;0.75;;;8.70;99.90;;;;;;1965458;72;21057;-75
2020/12/24 08:06:53;;;;;;;9.15;0.53;;;8.70;99.90;;;;;;1918340;73;21082;-74
2020/12/24 08:09:20;;;;;;;3.92;0.55;;;8.80;99.90;;;;;;1917685;73;21135;-74
2020/12/24 08:11:46;;;;;;;1.20;0.72;;;8.80;99.90;;;;;;1962575;72;21579;-74
2020/12/24 08:14:12;;;;;;;2.27;0.53;;;8.90;99.90;;;;;;1954701;72;21123;-75
2020/12/24 08:16:38;;;;;;;3.20;0.82;;;9.00;99.90;;;;;;1893061;73;21203;-74
2020/12/24 08:19:04;;;;;;;2.08;0.88;;;9.00;99.90;;;;;;1958189;72;21071;-74
2020/12/24 08:21:31;;;;;;;7.17;0.62;;;9.10;99.90;;;;;;1957767;71;21054;-76
2020/12/24 08:23:57;;;;;;;3.80;0.40;;;9.10;99.90;;;;;;1939417;72;21086;-77
2020/12/24 08:26:23;;;;;;;1.52;0.40;;;9.10;99.90;;;;;;1962684;71;21053;-77
2020/12/24 08:28:50;;;;;;;3.12;0.50;;;9.10;99.90;;;;;;1949777;72;21069;-77
2020/12/24 08:31:16;;;;;;;4.95;1.05;;;9.10;99.90;;;;;;1964776;72;21067;-77
2020/12/24 08:33:42;;;;;;;3.58;0.57;;;9.10;99.90;;;;;;1962493;72;21049;-77
2020/12/24 08:36:08;;;;;;;2.20;0.53;;;9.10;99.90;;;;;;1963393;72;21032;-78
2020/12/24 08:38:34;;;;;;;6.10;0.45;;;9.10;99.90;;;;;;1972043;72;21061;-78
2020/12/24 08:41:00;;;;;;;2.10;0.40;;;9.00;99.90;;;;;;1916335;73;21071;-76
2020/12/24 08:43:27;;;;;;;1.67;0.40;;;9.10;99.90;;;;;;1959905;72;21058;-76
2020/12/24 08:45:53;;;;;;;4.00;0.53;;;9.00;99.90;;;;;;1965272;72;21053;-79
2020/12/24 08:48:19;;;;;;;0.45;0.40;;;8.90;99.90;;;;;;1916685;73;21083;-75
2020/12/24 08:50:45;;;;;;;1.65;0.53;;;8.90;99.90;;;;;;1907728;73;21047;-76
2020/12/24 08:53:11;;;;;;;0.20;0.20;;;9.00;99.90;;;;;;1911705;73;21192;-79
2020/12/24 08:55:38;;;;;;;2.60;0.57;;;8.80;99.90;;;;;;1949766;72;21059;-78
2020/12/24 08:58:04;;;;;;;3.20;0.37;;;8.80;99.90;;;;;;1951280;72;21061;-76
2020/12/24 09:00:30;;;;;;;0.90;0.47;;;8.70;99.90;;;;;;1917709;73;21140;-77
2020/12/24 09:02:56;;;;;;;1.95;0.50;;;8.70;99.90;;;;;;1917262;74;21128;-77
2020/12/24 09:05:22;;;;;;;1.95;0.30;;;8.70;99.90;;;;;;1912048;73;21042;-76
2020/12/24 09:07:48;;;;;;;0.20;0.20;;;8.80;99.90;;;;;;1916925;73;21426;-76
2020/12/24 09:10:14;;;;;;;0.95;0.62;;;8.70;99.90;;;;;;1919838;73;21509;-78
2020/12/24 09:12:40;;;;;;;2.22;0.20;;;8.70;99.90;;;;;;1916404;73;21116;-77
2020/12/24 09:15:07;;;;;;;0.90;0.20;;;8.60;99.90;;;;;;1917453;73;21250;-77
2020/12/24 09:17:33;;;;;;;11.10;0.57;;;8.60;99.90;;;;;;1915052;73;21147;-76
2020/12/24 09:19:59;;;;;;;0.50;0.50;;;8.60;99.90;;;;;;1917427;73;21143;-76
2020/12/24 09:22:25;;;;;;;1.00;0.28;;;8.60;99.90;;;;;;1918793;73;21034;-74
2020/12/24 09:24:51;;;;;;;0.35;0.35;;;8.70;99.90;;;;;;1922333;73;21066;-74
2020/12/24 09:27:17;;;;;;;7.17;0.30;;;8.60;99.90;;;;;;1915319;73;21131;-76
2020/12/24 09:29:44;;;;;;;0.20;0.10;;;8.60;99.90;;;;;;1917268;74;21066;-75
2020/12/24 09:32:10;;;;;;;3.58;0.33;;;8.70;99.90;;;;;;1916896;73;21478;-75
2020/12/24 09:34:36;;;;;;;0.20;0.20;;;8.70;99.90;;;;;;1917562;73;21066;-72
2020/12/24 09:37:02;;;;;;;1.00;0.28;;;8.70;99.90;;;;;;1905975;74;21062;-74
2020/12/24 09:39:28;;;;;;;0.62;0.28;;;8.80;99.90;;;;;;1914448;74;21055;-73
2020/12/24 09:41:54;;;;;;;0.53;0.30;;;8.70;99.90;;;;;;1912249;73;21171;-74
2020/12/24 09:44:21;;;;;;;1.67;0.45;;;8.80;99.90;;;;;;1912529;73;21147;-74
2020/12/24 09:46:47;;;;;;;0.55;0.25;;;8.80;99.90;;;;;;1912937;73;21077;-74
2020/12/24 09:49:13;;;;;;;1.07;0.30;;;8.80;99.90;;;;;;1913187;73;21183;-75
2020/12/24 09:51:39;;;;;;;0.40;0.20;;;8.80;99.90;;;;;;1916860;74;21093;-75
2020/12/24 09:54:07;;;;;;;0.37;0.25;;;8.80;99.90;;;;;;1914101;74;21027;-74
2020/12/24 09:56:33;;;;;;;0.50;0.28;;;8.80;99.90;;;;;;1915147;73;21195;-75
2020/12/24 09:58:59;;;;;;;1.17;0.40;;;8.80;99.90;;;;;;1916011;73;21073;-76
2020/12/24 10:01:25;;;;;;;0.28;0.23;;;8.90;99.90;;;;;;1908488;74;21057;-76
2020/12/24 10:03:51;;;;;;;3.72;0.30;;;8.90;99.90;;;;;;1907964;74;21069;-76
2020/12/24 10:06:17;;;;;;;0.30;0.30;;;8.90;99.90;;;;;;1912901;73;21132;-75
2020/12/24 10:08:43;;;;;;;0.80;0.35;;;9.00;99.90;;;;;;1914541;73;21035;-75
2020/12/24 10:11:10;;;;;;;0.85;0.33;;;8.90;99.90;;;;;;1915169;73;21073;-75
2020/12/24 10:13:36;;;;;;;0.23;0.23;;;9.00;99.90;;;;;;1914943;73;21184;-75
2020/12/24 10:16:02;;;;;;;4.08;0.30;;;8.90;99.90;;;;;;1914985;73;21073;-75
2020/12/24 10:18:28;;;;;;;0.20;0.20;;;8.90;99.90;;;;;;1916050;73;21469;-74
2020/12/24 10:20:55;;;;;;;2.35;0.47;;;8.90;99.90;;;;;;1914109;74;21431;-75
2020/12/24 10:23:21;;;;;;;0.82;0.28;;;8.90;99.90;;;;;;1913185;73;21063;-75
2020/12/24 10:25:47;;;;;;;1.25;0.40;;;8.90;99.90;;;;;;1915690;74;21146;-74
2020/12/24 10:28:14;;;;;;;2.20;0.20;;;8.90;99.90;;;;;;1905288;74;21039;-77
2020/12/24 10:30:40;;;;;;;0.98;0.37;;;8.90;99.90;;;;;;1905020;73;21152;-76
2020/12/24 10:33:06;;;;;;;1.55;0.50;;;9.00;99.90;;;;;;1917896;73;21532;-76
2020/12/24 10:35:34;;;;;;;2.15;0.30;;;9.00;99.90;;;;;;1916330;73;21507;-75
2020/12/24 10:38:00;;;;;;;2.55;0.40;;;9.00;99.90;;;;;;1902942;74;21093;-76
2020/12/24 10:40:26;;;;;;;0.80;0.23;;;9.00;99.90;;;;;;1915790;73;21143;-76
2020/12/24 10:42:52;;;;;;;0.20;0.20;;;9.00;99.90;;;;;;1911699;73;21070;-76
2020/12/24 10:45:18;;;;;;;0.20;0.20;;;9.00;99.90;;;;;;1920477;73;21478;-76
2020/12/24 10:47:44;;;;;;;1.17;0.30;;;9.00;99.90;;;;;;1895896;74;21434;-76
2020/12/24 10:50:11;;;;;;;3.67;0.50;;;8.90;99.90;;;;;;1915071;73;21493;-76
2020/12/24 10:52:37;;;;;;;2.33;0.45;;;8.90;99.90;;;;;;1914629;73;21584;-76
2020/12/24 10:55:03;;;;;;;2.60;0.50;;;8.90;99.90;;;;;;1883896;74;21047;-75
2020/12/24 10:57:29;;;;;;;1.75;0.30;;;9.00;99.90;;;;;;1882170;73;21065;-76
2020/12/24 10:59:55;;;;;;;1.37;0.33;;;9.00;99.90;;;;;;1882706;73;21190;-76
2020/12/24 11:02:21;;;;;;;2.02;0.20;;;9.00;99.90;;;;;;1909590;74;21066;-76
2020/12/24 11:04:47;;;;;;;0.20;0.20;;;9.00;99.90;;;;;;1896775;73;21065;-76
2020/12/24 11:07:15;;;;;;;1.98;0.33;;;9.10;99.90;;;;;;1914501;73;21493;-75
2020/12/24 11:09:41;;;;;;;0.72;0.30;;;9.10;99.90;;;;;;1913057;73;21164;-75
2020/12/24 11:12:07;;;;;;;1.37;0.53;;;9.20;99.90;;;;;;1910120;73;21178;-74
2020/12/24 11:14:33;;;;;;;0.60;0.53;;;9.20;99.90;;;;;;1917408;73;21143;-76
2020/12/24 11:17:00;;;;;;;0.25;0.20;;;9.10;99.90;;;;;;1914016;74;21206;-76
2020/12/24 11:19:26;;;;;;;1.02;0.40;;;9.10;99.90;;;;;;1913059;73;21057;-72
2020/12/24 11:21:52;;;;;;;0.20;0.20;;;9.10;99.90;;;;;;1908368;74;21191;-75
2020/12/24 11:24:19;;;;;;;0.40;0.37;;;9.20;99.90;;;;;;1919663;73;21152;-78
2020/12/24 11:26:50;;;;;;;0.20;0.20;;;9.20;99.90;;;;;;1907408;73;21545;-75
2020/12/24 11:29:16;;;;;;;2.42;0.37;;;9.20;99.90;;;;;;1907584;73;21083;-77
2020/12/24 11:31:42;;;;;;;1.37;0.47;;;9.10;99.90;;;;;;1915447;73;21061;-81
2020/12/24 11:34:08;;;;;;;0.20;0.20;;;9.30;99.90;;;;;;1913842;73;21069;-78
2020/12/24 11:36:34;;;;;;;0.55;0.47;;;9.60;99.90;;;;;;1912528;73;21063;-76
2020/12/24 11:39:01;;;;;;;1.37;0.50;;;9.60;99.90;;;;;;1906708;73;21042;-78
2020/12/24 11:41:27;;;;;;;0.10;0.10;;;9.80;99.90;;;;;;1912420;73;21026;-78
2020/12/24 11:43:53;;;;;;;0.00;0.00;;;9.90;99.90;;;;;;1915175;73;21065;-77
2020/12/24 11:46:21;;;;;;;0.17;0.17;;;10.20;99.90;;;;;;1914850;73;21069;-80
2020/12/24 11:48:49;;;;;;;0.53;0.20;;;10.30;99.90;;;;;;1914522;73;21571;-79
2020/12/24 11:51:15;;;;;;;3.40;0.25;;;10.40;99.90;;;;;;1920169;73;21116;-79
2020/12/24 11:53:42;;;;;;;0.62;0.35;;;10.50;99.90;;;;;;1917725;73;21074;-78
2020/12/24 11:56:09;;;;;;;0.20;0.20;;;10.70;99.90;;;;;;1914046;73;21434;-80
2020/12/24 11:58:36;;;;;;;0.68;0.30;;;11.30;99.90;;;;;;1912655;73;21456;-78
2020/12/24 12:01:02;;;;;;;1.60;0.25;;;11.40;99.90;;;;;;1913696;73;21065;-80
2020/12/24 12:03:28;;;;;;;1.10;0.20;;;11.30;99.90;;;;;;1905063;73;21120;-83
2020/12/24 12:05:54;;;;;;;0.72;0.30;;;11.40;99.90;;;;;;1912590;73;21136;-80
2020/12/24 12:08:20;;;;;;;1.05;0.40;;;11.80;99.90;;;;;;1916347;73;21062;-82
2020/12/24 12:10:46;;;;;;;0.20;0.20;;;11.80;99.90;;;;;;1918066;73;21273;-81
2020/12/24 12:13:12;;;;;;;0.30;0.17;;;11.40;99.90;;;;;;1916283;73;21184;-82
2020/12/24 12:15:38;;;;;;;0.25;0.20;;;11.60;99.90;;;;;;1915016;73;21098;-83
2020/12/24 12:18:09;;;;;;;0.72;0.20;;;11.90;99.90;;;;;;1922529;73;21093;-83
2020/12/24 12:20:32;;;;;;;0.88;0.10;;;12.40;99.90;;;;;;1866966;74;21148;-81
2020/12/24 12:22:58;;;;;;;1.12;0.20;;;12.40;99.90;;;;;;1855652;75;21207;-83
2020/12/24 12:25:25;;;;;;;0.35;0.33;;;11.90;99.90;;;;;;1906105;73;21078;-80
2020/12/24 12:27:51;;;;;;;0.60;0.25;;;11.60;99.90;;;;;;1913201;73;21139;-80
2020/12/24 12:30:17;;;;;;;0.13;0.10;;;12.00;99.90;;;;;;1909304;74;21065;-79
2020/12/24 12:32:45;;;;;;;0.30;0.30;;;11.70;99.90;;;;;;1883494;73;21104;-83
2020/12/24 12:35:11;;;;;;;0.20;0.20;;;12.20;99.90;;;;;;1912869;73;21101;-78
2020/12/24 12:37:37;;;;;;;0.23;0.20;;;12.60;99.90;;;;;;1911632;73;21053;-78
2020/12/24 12:40:03;;;;;;;4.12;0.30;;;12.20;99.90;;;;;;1909432;73;21061;-80
2020/12/24 12:42:29;;;;;;;0.23;0.23;;;12.20;99.90;;;;;;1908815;73;21058;-80
2020/12/24 12:44:55;;;;;;;0.30;0.30;;;12.80;99.90;;;;;;1912826;74;21030;-78
2020/12/24 12:47:21;;;;;;;1.12;0.28;;;12.90;99.90;;;;;;1912462;73;21117;-81
2020/12/24 12:49:47;;;;;;;0.88;0.17;;;12.80;99.90;;;;;;1902131;73;21066;-78
2020/12/24 12:52:14;;;;;;;0.30;0.20;;;13.20;99.90;;;;;;1914054;73;22433;-78